Details From CYPX - Puvirnituq
To CYGL - La Grande Riviere
Flight Number -
Tags Generated
Created
Modified
Stats Distance 386 nm / 715 km
Max Altitude 0 ft / 0 m
Waypoints 3
Social Downloads 2
Likes 0
Share VATSIM

Download

Looking for another format? Having issues loading an existing format? Contact us
Advertisement - Login to hide

Notes

Generated

Route

CYPX GL CYGL

ID Type Via Altitude Latitude Longitude Leg Dist Tot Dist Heading (true) Name
O CYPX APT - 0 ft / 0 m 60.04389˚ -77.28306˚ - 0 nm - -
GL NDB - 0 ft / 0 m 53.63028˚ -77.70417˚ 385 nm 385 nm 182° / 182° LA GRANDE RIVIERE NDB
O CYGL APT - 0 ft / 0 m 53.62884˚ -77.71787˚ 0 nm 385 nm 260° / 260° -

Altitude Profile

Advertisement - Login to hide

Weather


0- 5 10 15 20 25 30 35+ Temperature / ° C

Clouds and Precipitation
Forecast for 2017-12-19 00:00 UTC. Updated an hour ago

Ground ~20,000 ft ~40,000 ft Winds

CYPX

Details ICAO CYPX (YPX)
Name PUVIRNITUQ
Region Canada
Timezone America/Montreal (UTC-5.0)
Stats Elevation 74 ft / 23 m (AMSL)
Location 60.050418° -77.286945°
Runways 1
Magnetic Variation 19.947° W

METAR

CYPX 182200Z AUTO 10010KT 9SM OVC030 M16/M18 A2942 RMK SLP969

Decode

TAF

TAF AMD CYPX 181921Z 1819/1906 07012KT P6SM OVC030 TEMPO 1819/1824 1SM -SN OVC020 FM190000 08012KT P6SM SCT025 TEMPO 1900/1906 3SM -SN OVC020 BECMG 1901/1903 08015G25KT RMK FCST BASED ON AUTO OBS. NXT FCST BY 190000Z

Decode

Departure Runways

ID Width Length Bearing (true) Bearing (mag) Surface Threshold Offset Overrun Length
01 100 ft / 30 m 4,971 ft / 1,515 m 343.44° 3.39° Gravel 0 ft / 0 m 0 ft / 0 m
19 100 ft / 30 m 4,971 ft / 1,515 m 163.44° 183.39° Gravel 0 ft / 0 m 0 ft / 0 m

CYGL

Details ICAO CYGL (YGL)
Name LA GRANDE RIVIERE
Region Canada
Timezone America/Montreal (UTC-5.0)
Stats Elevation 639 ft / 195 m (AMSL)
Location 53.625369° -77.704115°
Runways 1
Magnetic Variation 15.323° W

METAR

CYGL 182200Z 18011G22KT 5SM -SN OVC004 M07/M09 A2941 RMK SF8 SLP980

Decode

TAF

TAF CYGL 181738Z 1818/1918 18012G22KT 21/2SM -SN OVC006 TEMPO 1818/1901 6SM -SN OVC012 FM190100 18012G22KT 11/2SM -SN OVC006 TEMPO 1901/1912 4SM -SN OVC010 FM191200 20012G22KT 21/2SM -SN OVC010 RMK NXT FCST BY 190000Z

Decode

Destination Runways

ID Width Length Bearing (true) Bearing (mag) Surface Threshold Offset Overrun Length
13 150 ft / 46 m 6,469 ft / 1,972 m 113.03° 128.35° Asphalt 0 ft / 0 m 0 ft / 0 m
31 150 ft / 46 m 6,469 ft / 1,972 m 293.05° 308.37° Asphalt 0 ft / 0 m 0 ft / 0 m